createdAt,value
2023-02-25T00:00:25.351Z,70.21
2023-02-25T00:01:25.394Z,70.07
2023-02-25T00:02:25.412Z,70.71
2023-02-25T00:03:25.544Z,68.21
2023-02-25T00:04:25.322Z,69.63
2023-02-25T00:05:25.315Z,70.52
2023-02-25T00:06:25.462Z,66.87
2023-02-25T00:07:25.314Z,66.91
2023-02-25T00:08:25.280Z,69.12
2023-02-25T00:09:25.286Z,69.86
2023-02-25T00:10:25.259Z,70.32
2023-02-25T00:11:25.255Z,70.99
2023-02-25T00:12:25.261Z,68.94
2023-02-25T00:13:25.270Z,68.90
2023-02-25T00:14:25.224Z,70.70
2023-02-25T00:15:25.218Z,69.64
2023-02-25T00:16:25.583Z,70.63
2023-02-25T00:17:25.218Z,70.81
2023-02-25T00:18:25.198Z,68.72
2023-02-25T00:19:25.194Z,70.39
2023-02-25T00:20:25.167Z,69.72
2023-02-25T00:21:25.192Z,69.40
2023-02-25T00:22:25.171Z,70.61
2023-02-25T00:23:25.142Z,70.28
2023-02-25T00:24:25.141Z,71.94
2023-02-25T00:25:25.119Z,71.59
2023-02-25T00:26:25.325Z,69.61
2023-02-25T00:27:25.119Z,68.10
2023-02-25T00:28:25.094Z,69.46
2023-02-25T00:29:25.089Z,71.60
2023-02-25T00:30:25.076Z,70.78
2023-02-25T00:31:25.206Z,70.19
2023-02-25T00:32:26.351Z,70.55
2023-02-25T00:33:25.048Z,69.32
2023-02-25T00:34:25.044Z,70.93
2023-02-25T00:35:25.042Z,70.85
2023-02-25T00:36:25.684Z,69.14
2023-02-25T00:37:25.041Z,68.83
2023-02-25T00:38:25.057Z,68.47
2023-02-25T00:39:25.023Z,68.35
2023-02-25T00:40:24.989Z,70.81
2023-02-25T00:41:24.972Z,67.75
2023-02-25T00:42:25.008Z,68.27
2023-02-25T00:43:24.953Z,69.76
2023-02-25T00:44:24.954Z,68.28
2023-02-25T00:45:24.931Z,70.26
2023-02-25T00:46:25.348Z,69.95
2023-02-25T00:47:24.952Z,68.59
2023-02-25T00:48:24.926Z,68.28
2023-02-25T00:49:32.105Z,72.48
2023-02-25T00:50:26.906Z,67.05
2023-02-25T00:51:24.887Z,69.82
2023-02-25T00:52:24.884Z,70.20
2023-02-25T00:53:24.858Z,71.65
2023-02-25T00:54:24.854Z,71.03
2023-02-25T00:55:24.844Z,70.95
2023-02-25T00:56:25.154Z,67.99
2023-02-25T00:57:24.851Z,69.28
2023-02-25T00:58:24.816Z,69.49
2023-02-25T00:59:24.802Z,70.70
2023-02-25T01:00:24.801Z,68.60
2023-02-25T01:01:24.874Z,67.77
2023-02-25T01:02:24.861Z,68.74
2023-02-25T01:03:24.767Z,71.10
2023-02-25T01:04:24.763Z,70.99
2023-02-25T01:05:24.771Z,69.41
2023-02-25T01:06:24.923Z,69.82
2023-02-25T01:07:24.756Z,68.17
2023-02-25T01:08:24.720Z,70.94
2023-02-25T01:09:24.715Z,69.36
2023-02-25T01:10:24.709Z,70.89
2023-02-25T01:11:24.701Z,67.17
2023-02-25T01:12:24.702Z,68.86
2023-02-25T01:13:24.685Z,67.76
2023-02-25T01:14:24.674Z,66.30
2023-02-25T01:15:24.683Z,69.91
2023-02-25T01:16:25.228Z,69.21
2023-02-25T01:17:24.658Z,66.11
2023-02-25T01:18:24.681Z,67.51
2023-02-25T01:19:24.617Z,68.76
2023-02-25T01:20:24.615Z,66.48
2023-02-25T01:21:24.601Z,68.49
2023-02-25T01:22:24.588Z,67.82
2023-02-25T01:23:24.604Z,68.10
2023-02-25T01:24:24.595Z,68.94
2023-02-25T01:25:24.567Z,67.38
2023-02-25T01:26:24.900Z,66.22
2023-02-25T01:27:24.570Z,67.33
2023-02-25T01:28:24.535Z,67.40
2023-02-25T01:29:24.515Z,68.97
2023-02-25T01:30:24.520Z,69.12
2023-02-25T01:31:24.658Z,70.56
2023-02-25T01:32:24.628Z,69.85
2023-02-25T01:33:24.488Z,70.41
2023-02-25T01:34:24.480Z,66.80
2023-02-25T01:35:24.467Z,68.15
2023-02-25T01:36:24.756Z,70.82
2023-02-25T01:37:24.483Z,70.07
2023-02-25T01:38:24.443Z,71.19
2023-02-25T01:39:26.285Z,72.29
2023-02-25T01:40:25.429Z,70.57
2023-02-25T01:41:24.410Z,70.71
2023-02-25T01:42:24.426Z,71.83
2023-02-25T01:43:24.417Z,71.45
2023-02-25T01:44:24.432Z,71.55
2023-02-25T01:45:24.396Z,69.47
2023-02-25T01:46:24.808Z,72.06
2023-02-25T01:47:24.422Z,71.22
2023-02-25T01:48:24.359Z,70.23
2023-02-25T01:49:24.356Z,68.29
2023-02-25T01:50:24.338Z,70.54
2023-02-25T01:51:24.326Z,68.56
2023-02-25T01:52:24.367Z,70.56
2023-02-25T01:53:24.338Z,72.69
2023-02-25T01:54:24.307Z,70.11
2023-02-25T01:55:24.299Z,68.32
2023-02-25T01:56:24.516Z,69.78
2023-02-25T01:57:24.289Z,67.20
2023-02-25T01:58:24.271Z,67.78
2023-02-25T01:59:24.268Z,68.54
2023-02-25T02:00:24.252Z,69.00
2023-02-25T02:01:24.241Z,70.52
2023-02-25T02:02:24.299Z,69.35
2023-02-25T02:03:24.249Z,69.75
2023-02-25T02:04:25.322Z,68.83
2023-02-25T02:05:24.200Z,68.72
2023-02-25T02:06:24.599Z,70.06
2023-02-25T02:07:24.232Z,71.16
2023-02-25T02:08:24.174Z,69.90
2023-02-25T02:09:24.158Z,70.97
2023-02-25T02:10:24.161Z,70.86
2023-02-25T02:11:24.142Z,70.01
2023-02-25T02:12:24.161Z,72.18
2023-02-25T02:13:24.125Z,71.67
2023-02-25T02:14:24.120Z,71.07
2023-02-25T02:15:24.109Z,71.24
2023-02-25T02:16:24.568Z,71.93
2023-02-25T02:17:24.160Z,69.68
2023-02-25T02:18:24.075Z,70.04
2023-02-25T02:19:24.075Z,72.08
2023-02-25T02:20:24.063Z,68.86
2023-02-25T02:21:24.060Z,71.23
2023-02-25T02:22:24.069Z,71.61
2023-02-25T02:23:24.078Z,70.59
2023-02-25T02:24:24.034Z,73.31
2023-02-25T02:25:24.084Z,70.25
2023-02-25T02:26:24.279Z,70.31
2023-02-25T02:27:24.045Z,73.33
2023-02-25T02:28:24.025Z,71.00
2023-02-25T02:29:24.059Z,69.74
2023-02-25T02:30:23.977Z,67.39
2023-02-25T02:31:23.967Z,72.15
2023-02-25T02:32:24.049Z,71.72
2023-02-25T02:33:23.978Z,73.24
2023-02-25T02:34:23.933Z,73.94
2023-02-25T02:35:23.929Z,73.17
2023-02-25T02:36:24.241Z,71.63
2023-02-25T02:37:23.903Z,73.78
2023-02-25T02:38:23.932Z,72.65
2023-02-25T02:39:23.894Z,70.51
2023-02-25T02:40:23.875Z,75.36
2023-02-25T02:41:23.869Z,75.33
2023-02-25T02:42:23.861Z,71.78
2023-02-25T02:43:23.888Z,73.32
2023-02-25T02:44:23.845Z,71.51
2023-02-25T02:45:23.887Z,71.85
2023-02-25T02:46:24.159Z,72.08
2023-02-25T02:47:23.814Z,70.56
2023-02-25T02:48:23.816Z,71.36
2023-02-25T02:49:23.793Z,70.93
2023-02-25T02:50:23.786Z,71.75
2023-02-25T02:51:23.776Z,70.58
2023-02-25T02:52:23.772Z,70.05
2023-02-25T02:53:23.808Z,69.02
2023-02-25T02:54:23.741Z,73.27
2023-02-25T02:55:23.730Z,70.88
2023-02-25T02:56:24.090Z,71.14
2023-02-25T02:57:23.725Z,72.47
2023-02-25T02:58:23.736Z,71.02
2023-02-25T02:59:23.834Z,72.28
2023-02-25T03:00:23.698Z,68.99
2023-02-25T03:01:23.758Z,71.28
2023-02-25T03:02:23.676Z,72.36
2023-02-25T03:03:23.673Z,70.47
2023-02-25T03:04:23.695Z,70.11
2023-02-25T03:05:23.655Z,68.24
2023-02-25T03:06:24.035Z,69.43
2023-02-25T03:07:23.639Z,71.07
2023-02-25T03:08:23.652Z,71.66
2023-02-25T03:09:23.622Z,68.81
2023-02-25T03:10:23.618Z,71.53
2023-02-25T03:11:23.621Z,72.42
2023-02-25T03:12:23.596Z,70.96
2023-02-25T03:13:23.671Z,71.51
2023-02-25T03:14:23.588Z,73.79
2023-02-25T03:15:23.564Z,70.23
2023-02-25T03:16:23.922Z,73.07
2023-02-25T03:17:23.551Z,70.25
2023-02-25T03:18:23.593Z,72.17
2023-02-25T03:19:23.533Z,70.83
2023-02-25T03:20:23.530Z,72.00
2023-02-25T03:21:23.527Z,70.52
2023-02-25T03:22:23.522Z,67.90
2023-02-25T03:23:23.608Z,71.24
2023-02-25T03:24:23.508Z,72.65
2023-02-25T03:25:23.531Z,73.35
2023-02-25T03:26:24.789Z,73.40
2023-02-25T03:27:23.474Z,69.67
2023-02-25T03:28:23.476Z,73.01
2023-02-25T03:29:23.455Z,71.26
2023-02-25T03:30:23.446Z,70.01
2023-02-25T03:31:23.440Z,71.32
2023-02-25T03:32:23.653Z,73.25
2023-02-25T03:33:23.440Z,70.58
2023-02-25T03:34:23.413Z,71.67
2023-02-25T03:35:23.401Z,70.79
2023-02-25T03:36:23.697Z,69.33
2023-02-25T03:37:23.387Z,70.33
2023-02-25T03:38:23.402Z,71.90
2023-02-25T03:39:23.370Z,71.02
2023-02-25T03:40:23.364Z,67.42
2023-02-25T03:41:23.348Z,70.95
2023-02-25T03:42:23.348Z,71.62
2023-02-25T03:43:23.361Z,71.13
2023-02-25T03:44:23.335Z,71.46
2023-02-25T03:45:23.324Z,71.74
2023-02-25T03:46:23.632Z,72.68
2023-02-25T03:47:23.340Z,70.51
2023-02-25T03:48:23.324Z,71.23
2023-02-25T03:49:23.289Z,72.19
2023-02-25T03:50:23.277Z,68.83
2023-02-25T03:51:23.267Z,69.74
2023-02-25T03:52:23.263Z,69.35
2023-02-25T03:53:23.317Z,70.15
2023-02-25T03:54:23.242Z,70.49
2023-02-25T03:55:23.241Z,70.11
2023-02-25T03:56:23.552Z,69.28
2023-02-25T03:57:23.210Z,69.93
2023-02-25T03:58:23.231Z,70.11
2023-02-25T03:59:23.198Z,71.65
2023-02-25T04:00:23.193Z,72.42
2023-02-25T04:01:23.180Z,71.36
2023-02-25T04:02:23.202Z,70.27
2023-02-25T04:03:23.177Z,72.96
2023-02-25T04:04:23.213Z,71.42
2023-02-25T04:05:23.162Z,70.91
2023-02-25T04:06:23.318Z,70.80
2023-02-25T04:07:23.123Z,72.36
2023-02-25T04:08:23.144Z,71.79
2023-02-25T04:09:23.118Z,71.42
2023-02-25T04:10:23.131Z,72.89
2023-02-25T04:11:23.097Z,72.01
2023-02-25T04:12:23.103Z,74.01
2023-02-25T04:13:23.071Z,70.97
2023-02-25T04:14:23.067Z,71.16
2023-02-25T04:15:23.070Z,71.45
2023-02-25T04:16:23.399Z,72.51
2023-02-25T04:17:23.047Z,71.94
2023-02-25T04:18:23.040Z,72.23
2023-02-25T04:19:23.022Z,72.08
2023-02-25T04:20:23.027Z,73.31
2023-02-25T04:21:22.998Z,73.10
2023-02-25T04:22:22.995Z,73.80
2023-02-25T04:23:23.028Z,72.62
2023-02-25T04:24:22.989Z,74.45
2023-02-25T04:25:22.961Z,71.77
2023-02-25T04:26:23.482Z,73.61
2023-02-25T04:27:22.948Z,73.44
2023-02-25T04:28:22.978Z,74.39
2023-02-25T04:29:22.937Z,73.78
2023-02-25T04:30:22.925Z,73.09
2023-02-25T04:31:23.058Z,72.90
2023-02-25T04:32:24.007Z,70.95
2023-02-25T04:33:22.935Z,71.98
2023-02-25T04:34:22.887Z,73.35
2023-02-25T04:35:22.874Z,72.61
2023-02-25T04:36:23.263Z,72.97
2023-02-25T04:37:22.876Z,73.10
2023-02-25T04:38:22.883Z,71.30
2023-02-25T04:39:22.852Z,72.10
2023-02-25T04:40:22.851Z,72.63
2023-02-25T04:41:22.843Z,72.91
2023-02-25T04:42:22.835Z,74.44
2023-02-25T04:43:22.841Z,72.81
2023-02-25T04:44:22.808Z,72.33
2023-02-25T04:45:24.344Z,72.97
2023-02-25T04:46:23.194Z,73.37
2023-02-25T04:47:22.799Z,73.77
2023-02-25T04:48:22.806Z,75.06
2023-02-25T04:49:22.762Z,71.00
2023-02-25T04:50:22.770Z,72.04
2023-02-25T04:51:22.748Z,73.27
2023-02-25T04:52:22.742Z,71.92
2023-02-25T04:53:22.779Z,72.75
2023-02-25T04:54:22.725Z,71.99
2023-02-25T04:55:22.721Z,72.85
2023-02-25T04:56:22.928Z,73.15
2023-02-25T04:57:22.703Z,71.89
2023-02-25T04:58:22.713Z,72.81
2023-02-25T04:59:35.984Z,74.33
2023-02-25T05:00:22.683Z,72.00
2023-02-25T05:01:22.802Z,70.26
2023-02-25T05:02:22.688Z,72.31
2023-02-25T05:03:22.683Z,71.01
2023-02-25T05:04:22.678Z,71.42
2023-02-25T05:05:22.641Z,71.83
2023-02-25T05:06:23.035Z,71.53
2023-02-25T05:07:22.631Z,71.87
2023-02-25T05:08:22.632Z,71.15
2023-02-25T05:09:22.599Z,71.83
2023-02-25T05:10:22.594Z,72.22
2023-02-25T05:11:22.593Z,71.68
2023-02-25T05:12:22.573Z,74.27
2023-02-25T05:13:22.590Z,70.81
2023-02-25T05:14:22.561Z,71.40
2023-02-25T05:15:22.554Z,72.48
2023-02-25T05:16:23.041Z,69.75
2023-02-25T05:17:22.525Z,69.00
2023-02-25T05:18:23.555Z,70.45
2023-02-25T05:19:22.518Z,70.00
2023-02-25T05:20:22.558Z,71.85
2023-02-25T05:21:22.515Z,71.83
2023-02-25T05:22:22.485Z,71.65
2023-02-25T05:23:22.517Z,70.19
2023-02-25T05:24:22.490Z,69.94
2023-02-25T05:25:22.459Z,70.33
2023-02-25T05:26:22.940Z,70.53
2023-02-25T05:27:22.449Z,70.48
2023-02-25T05:28:22.458Z,70.49
2023-02-25T05:29:22.460Z,69.78
2023-02-25T05:30:22.412Z,69.91
2023-02-25T05:31:22.589Z,69.73
2023-02-25T05:32:22.497Z,72.85
2023-02-25T05:33:22.405Z,70.05
2023-02-25T05:34:22.399Z,70.59
2023-02-25T05:35:22.374Z,69.94
2023-02-25T05:36:24.165Z,69.12
2023-02-25T05:37:22.350Z,69.95
2023-02-25T05:38:22.349Z,70.78
2023-02-25T05:39:22.370Z,72.23
2023-02-25T05:40:22.338Z,69.30
2023-02-25T05:41:22.326Z,70.26
2023-02-25T05:42:22.322Z,69.02
2023-02-25T05:43:22.313Z,68.68
2023-02-25T05:44:22.361Z,68.27
2023-02-25T05:45:22.299Z,69.96
2023-02-25T05:46:22.674Z,71.50
2023-02-25T05:47:22.278Z,67.43
2023-02-25T05:48:22.279Z,67.00
2023-02-25T05:49:22.280Z,68.98
2023-02-25T05:50:22.246Z,67.19
2023-02-25T05:51:23.288Z,67.69
2023-02-25T05:52:22.239Z,67.77
2023-02-25T05:53:22.226Z,68.22
2023-02-25T05:54:22.271Z,67.39
2023-02-25T05:55:22.207Z,66.49
2023-02-25T05:56:22.649Z,67.39
2023-02-25T05:57:22.195Z,67.85
2023-02-25T05:58:22.176Z,67.30
2023-02-25T05:59:22.195Z,68.05
2023-02-25T06:00:22.160Z,68.87
2023-02-25T06:01:22.159Z,68.37
2023-02-25T06:02:22.225Z,68.77
2023-02-25T06:03:22.236Z,68.82
2023-02-25T06:04:22.150Z,67.88
2023-02-25T06:05:22.128Z,68.65
2023-02-25T06:06:22.410Z,66.13
2023-02-25T06:07:22.108Z,67.70
2023-02-25T06:08:22.091Z,68.88
2023-02-25T06:09:22.153Z,67.42
2023-02-25T06:10:22.067Z,68.79
2023-02-25T06:11:22.087Z,67.79
2023-02-25T06:12:22.059Z,67.37
2023-02-25T06:13:22.070Z,68.30
2023-02-25T06:14:22.112Z,68.76
2023-02-25T06:15:22.032Z,68.37
2023-02-25T06:16:22.563Z,68.92
2023-02-25T06:17:22.009Z,68.55
2023-02-25T06:18:22.023Z,68.11
2023-02-25T06:19:22.010Z,69.52
2023-02-25T06:20:21.987Z,70.04
2023-02-25T06:21:21.985Z,70.84
2023-02-25T06:22:21.971Z,69.64
2023-02-25T06:23:21.951Z,69.58
2023-02-25T06:24:21.974Z,68.81
2023-02-25T06:25:21.938Z,68.81
2023-02-25T06:26:22.464Z,68.50
2023-02-25T06:27:21.938Z,68.24
2023-02-25T06:28:21.919Z,69.10
2023-02-25T06:29:21.922Z,69.14
2023-02-25T06:30:21.900Z,68.61
2023-02-25T06:31:21.937Z,68.77
2023-02-25T06:32:22.038Z,67.68
2023-02-25T06:33:21.874Z,66.74
2023-02-25T06:34:21.926Z,68.65
2023-02-25T06:35:21.893Z,69.73
2023-02-25T06:36:22.345Z,69.13
2023-02-25T06:37:21.839Z,69.68
2023-02-25T06:38:21.824Z,70.39
2023-02-25T06:39:21.835Z,70.45
2023-02-25T06:40:21.838Z,69.97
2023-02-25T06:41:21.822Z,69.12
2023-02-25T06:42:21.793Z,69.62
2023-02-25T06:43:21.773Z,69.44
2023-02-25T06:44:21.792Z,67.90
2023-02-25T06:45:21.785Z,69.11
2023-02-25T06:46:22.261Z,69.64
2023-02-25T06:47:21.762Z,69.89
2023-02-25T06:48:21.743Z,69.90
2023-02-25T06:49:21.750Z,70.20
2023-02-25T06:50:21.719Z,69.55
2023-02-25T06:51:21.717Z,69.05
2023-02-25T06:52:21.705Z,68.76
2023-02-25T06:53:21.725Z,68.84
2023-02-25T06:54:21.714Z,68.00
2023-02-25T06:55:21.684Z,68.07
2023-02-25T06:56:22.357Z,69.42
2023-02-25T06:57:21.654Z,70.46
2023-02-25T06:58:21.652Z,69.53
2023-02-25T06:59:21.666Z,69.57
2023-02-25T07:00:21.635Z,68.09
2023-02-25T07:01:21.659Z,67.59
2023-02-25T07:02:21.622Z,68.45
2023-02-25T07:03:21.608Z,69.61
2023-02-25T07:04:21.728Z,69.06
2023-02-25T07:05:21.601Z,69.44
2023-02-25T07:06:22.002Z,68.88
2023-02-25T07:07:21.599Z,69.18
2023-02-25T07:08:21.574Z,68.79
2023-02-25T07:09:21.610Z,70.13
2023-02-25T07:10:21.582Z,69.33
2023-02-25T07:11:21.580Z,70.08
2023-02-25T07:12:21.532Z,69.14
2023-02-25T07:13:21.533Z,68.75
2023-02-25T07:14:21.556Z,69.98
2023-02-25T07:15:21.524Z,71.32
2023-02-25T07:16:21.827Z,68.95
2023-02-25T07:17:22.498Z,69.35
2023-02-25T07:18:21.505Z,69.75
2023-02-25T07:19:21.496Z,69.68
2023-02-25T07:20:21.463Z,69.34
2023-02-25T07:21:21.462Z,69.18
2023-02-25T07:22:24.087Z,69.13
2023-02-25T07:23:21.470Z,69.99
2023-02-25T07:24:21.444Z,69.05
2023-02-25T07:25:22.499Z,68.85
2023-02-25T07:26:21.743Z,69.08
2023-02-25T07:27:21.440Z,70.55
2023-02-25T07:28:21.418Z,70.35
2023-02-25T07:29:21.432Z,70.89
2023-02-25T07:30:21.401Z,70.81
2023-02-25T07:31:21.525Z,70.49
2023-02-25T07:32:21.543Z,69.62
2023-02-25T07:33:21.388Z,70.55
2023-02-25T07:34:21.359Z,71.37
2023-02-25T07:35:21.339Z,71.68
2023-02-25T07:36:21.336Z,70.97
2023-02-25T07:37:21.322Z,70.08
2023-02-25T07:38:21.336Z,70.08
2023-02-25T07:39:21.349Z,70.70
2023-02-25T07:40:21.305Z,71.10
2023-02-25T07:41:21.479Z,70.84
2023-02-25T07:42:21.312Z,70.49
2023-02-25T07:43:21.283Z,69.90
2023-02-25T07:44:21.299Z,71.44
2023-02-25T07:45:21.263Z,72.31
2023-02-25T07:46:21.278Z,72.25
2023-02-25T07:47:21.249Z,71.37
2023-02-25T07:48:21.246Z,70.63
2023-02-25T07:49:21.269Z,69.92
2023-02-25T07:50:21.237Z,69.14
2023-02-25T07:51:21.515Z,70.30
2023-02-25T07:52:21.230Z,70.67
2023-02-25T07:53:21.222Z,72.55
2023-02-25T07:54:21.213Z,72.21
2023-02-25T07:55:21.205Z,71.72
2023-02-25T07:56:21.185Z,71.05
2023-02-25T07:57:21.177Z,70.79
2023-02-25T07:58:21.173Z,68.85
2023-02-25T07:59:21.182Z,70.36
2023-02-25T08:00:21.160Z,70.58
2023-02-25T08:01:21.611Z,70.96
2023-02-25T08:02:21.196Z,70.64
2023-02-25T08:03:21.127Z,71.79
2023-02-25T08:04:21.167Z,71.75
2023-02-25T08:05:21.105Z,71.87
2023-02-25T08:06:21.103Z,70.72
2023-02-25T08:07:21.080Z,69.21
2023-02-25T08:08:21.079Z,70.08
2023-02-25T08:09:21.095Z,70.80
2023-02-25T08:10:21.058Z,70.61
2023-02-25T08:11:21.240Z,72.19
2023-02-25T08:12:21.042Z,71.86
2023-02-25T08:13:21.034Z,71.17
2023-02-25T08:14:21.037Z,72.44
2023-02-25T08:15:21.018Z,71.20
2023-02-25T08:16:21.079Z,70.94
2023-02-25T08:17:20.997Z,71.26
2023-02-25T08:18:20.990Z,71.06
2023-02-25T08:19:21.015Z,70.89
2023-02-25T08:20:20.974Z,71.29
2023-02-25T08:21:21.405Z,71.54
2023-02-25T08:22:20.952Z,71.27
2023-02-25T08:23:21.006Z,70.44
2023-02-25T08:24:20.970Z,70.71
2023-02-25T08:25:20.920Z,71.33
2023-02-25T08:26:20.936Z,71.57
2023-02-25T08:27:20.914Z,72.99
2023-02-25T08:28:20.914Z,72.09
2023-02-25T08:29:20.901Z,71.45
2023-02-25T08:30:20.880Z,71.81
2023-02-25T08:31:21.080Z,72.13
2023-02-25T08:32:20.975Z,71.01
2023-02-25T08:33:20.839Z,73.57
2023-02-25T08:34:20.860Z,73.71
2023-02-25T08:35:20.823Z,74.17
2023-02-25T08:36:20.819Z,73.99
2023-02-25T08:37:21.817Z,72.80
2023-02-25T08:38:20.789Z,73.14
2023-02-25T08:39:20.832Z,72.55
2023-02-25T08:40:20.784Z,72.20
2023-02-25T08:41:21.115Z,73.68
2023-02-25T08:42:20.766Z,74.66
2023-02-25T08:43:20.737Z,73.80
2023-02-25T08:44:20.754Z,73.43
2023-02-25T08:45:20.720Z,73.57
2023-02-25T08:46:21.334Z,74.12
2023-02-25T08:47:21.702Z,74.32
2023-02-25T08:48:20.702Z,74.15
2023-02-25T08:49:20.713Z,73.37
2023-02-25T08:50:20.689Z,74.99
2023-02-25T08:51:20.911Z,74.81
2023-02-25T08:52:20.660Z,73.36
2023-02-25T08:53:20.661Z,73.14
2023-02-25T08:54:20.675Z,73.85
2023-02-25T08:55:20.667Z,74.67
2023-02-25T08:56:20.613Z,74.53
2023-02-25T08:57:20.615Z,74.88
2023-02-25T08:58:20.596Z,73.50
2023-02-25T08:59:20.591Z,74.65
2023-02-25T09:00:20.592Z,73.98
2023-02-25T09:01:20.697Z,73.87
2023-02-25T09:02:20.588Z,73.63
2023-02-25T09:03:20.582Z,71.38
2023-02-25T09:04:20.621Z,71.60
2023-02-25T09:05:20.848Z,71.24
2023-02-25T09:06:21.530Z,73.65
2023-02-25T09:07:20.504Z,70.76
2023-02-25T09:08:20.498Z,71.50
2023-02-25T09:09:20.505Z,73.30
2023-02-25T09:10:20.499Z,71.42
2023-02-25T09:11:20.519Z,72.22
2023-02-25T09:12:20.961Z,72.15
2023-02-25T09:13:20.449Z,71.04
2023-02-25T09:14:20.446Z,73.55
2023-02-25T09:15:20.461Z,74.71
2023-02-25T09:16:20.640Z,74.60
2023-02-25T09:17:20.429Z,75.38
2023-02-25T09:18:20.422Z,75.62
2023-02-25T09:19:20.393Z,75.27
2023-02-25T09:20:20.409Z,73.80
2023-02-25T09:21:20.402Z,74.12
2023-02-25T09:22:20.377Z,74.36
2023-02-25T09:23:20.377Z,73.22
2023-02-25T09:24:20.365Z,74.20
2023-02-25T09:25:20.378Z,73.61
2023-02-25T09:26:20.343Z,75.10
2023-02-25T09:27:20.349Z,72.86
2023-02-25T09:28:20.326Z,74.22
2023-02-25T09:29:20.317Z,75.16
2023-02-25T09:30:20.333Z,75.41
2023-02-25T09:31:20.453Z,73.79
2023-02-25T09:32:20.433Z,74.95
2023-02-25T09:33:20.274Z,74.70
2023-02-25T09:34:21.284Z,73.61
2023-02-25T09:35:20.307Z,75.24
2023-02-25T09:36:20.253Z,74.44
2023-02-25T09:37:20.252Z,73.83
2023-02-25T09:38:20.240Z,73.43
2023-02-25T09:39:20.225Z,75.22
2023-02-25T09:40:20.278Z,74.56
2023-02-25T09:41:20.322Z,74.78
2023-02-25T09:42:20.201Z,74.99
2023-02-25T09:43:20.198Z,73.15
2023-02-25T09:44:20.222Z,73.55
2023-02-25T09:45:20.226Z,74.33
2023-02-25T09:46:20.247Z,73.26
2023-02-25T09:47:20.258Z,74.22
2023-02-25T09:48:20.152Z,73.67
2023-02-25T09:49:20.171Z,75.11
2023-02-25T09:50:20.158Z,73.82
2023-02-25T09:51:20.130Z,73.74
2023-02-25T09:52:20.119Z,75.31
2023-02-25T09:53:20.114Z,74.35
2023-02-25T09:54:20.120Z,73.52
2023-02-25T09:55:20.145Z,72.49
2023-02-25T09:56:20.080Z,73.11
2023-02-25T09:57:20.074Z,73.93
2023-02-25T09:58:20.055Z,73.40
2023-02-25T09:59:20.048Z,73.00
2023-02-25T10:00:20.189Z,71.57
2023-02-25T10:01:20.028Z,72.21
2023-02-25T10:02:20.112Z,72.40
2023-02-25T10:03:20.164Z,71.74
2023-02-25T10:04:20.019Z,73.41
2023-02-25T10:05:20.102Z,73.18
2023-02-25T10:06:19.993Z,72.56
2023-02-25T10:07:19.990Z,73.55
2023-02-25T10:08:19.984Z,72.79
2023-02-25T10:09:19.958Z,73.07
2023-02-25T10:10:20.060Z,72.97
2023-02-25T10:11:19.946Z,73.32
2023-02-25T10:12:20.351Z,73.74
2023-02-25T10:13:20.936Z,74.29
2023-02-25T10:14:19.941Z,72.90
2023-02-25T10:15:19.937Z,72.54
2023-02-25T10:16:19.915Z,71.98
2023-02-25T10:17:19.891Z,73.26
2023-02-25T10:18:19.900Z,72.92
2023-02-25T10:19:19.856Z,73.69
2023-02-25T10:20:19.941Z,72.66
2023-02-25T10:21:19.834Z,72.98
2023-02-25T10:22:19.846Z,71.57
2023-02-25T10:23:19.818Z,70.90
2023-02-25T10:24:19.797Z,70.84
2023-02-25T10:25:20.846Z,73.34
2023-02-25T10:26:19.782Z,72.13
2023-02-25T10:27:19.780Z,72.82
2023-02-25T10:28:19.789Z,73.17
2023-02-25T10:29:19.791Z,71.63
2023-02-25T10:30:19.775Z,72.15
2023-02-25T10:31:19.849Z,71.88
2023-02-25T10:32:19.915Z,71.48
2023-02-25T10:33:19.723Z,71.40
2023-02-25T10:34:19.698Z,71.77
2023-02-25T10:35:19.715Z,73.40
2023-02-25T10:36:19.696Z,73.72
2023-02-25T10:37:19.674Z,73.91
2023-02-25T10:38:19.659Z,73.06
2023-02-25T10:39:19.661Z,72.19
2023-02-25T10:40:19.658Z,72.43
2023-02-25T10:41:19.636Z,72.08
2023-02-25T10:42:19.621Z,72.78
2023-02-25T10:43:19.609Z,71.27
2023-02-25T10:44:19.602Z,72.10
2023-02-25T10:45:19.604Z,72.14
2023-02-25T10:46:19.614Z,73.70
2023-02-25T10:47:19.570Z,75.89
2023-02-25T10:48:19.564Z,74.68
2023-02-25T10:49:19.547Z,73.80
2023-02-25T10:50:19.560Z,74.03
2023-02-25T10:51:19.550Z,73.89
2023-02-25T10:52:19.548Z,72.48
2023-02-25T10:53:19.516Z,72.44
2023-02-25T10:54:19.504Z,71.92
2023-02-25T10:55:19.530Z,72.03
2023-02-25T10:56:19.504Z,72.51
2023-02-25T10:57:19.487Z,73.44
2023-02-25T10:58:19.469Z,72.14
2023-02-25T10:59:19.473Z,72.82
2023-02-25T11:00:19.478Z,71.71
2023-02-25T11:01:19.528Z,73.62
2023-02-25T11:02:20.566Z,74.57
2023-02-25T11:03:19.430Z,72.86
2023-02-25T11:04:51.323Z,76.02
2023-02-25T11:05:19.432Z,76.15
2023-02-25T11:06:21.181Z,74.03
2023-02-25T11:07:19.400Z,75.26
2023-02-25T11:08:19.396Z,75.45
2023-02-25T11:09:19.410Z,75.60
2023-02-25T11:10:19.395Z,74.81
2023-02-25T11:11:19.375Z,75.41
2023-02-25T11:12:19.385Z,74.98
2023-02-25T11:13:19.362Z,74.99
2023-02-25T11:14:19.374Z,72.87
2023-02-25T11:15:19.355Z,74.18
2023-02-25T11:16:19.422Z,73.59
2023-02-25T11:17:19.328Z,74.19
2023-02-25T11:18:19.319Z,74.93
2023-02-25T11:19:19.345Z,74.72
2023-02-25T11:20:19.318Z,74.45
2023-02-25T11:21:19.318Z,74.76
2023-02-25T11:22:19.285Z,74.80
2023-02-25T11:23:19.275Z,73.98
2023-02-25T11:24:19.265Z,74.88
2023-02-25T11:25:19.254Z,74.97
2023-02-25T11:26:19.297Z,73.69
2023-02-25T11:27:19.264Z,73.90
2023-02-25T11:28:19.242Z,74.15
2023-02-25T11:29:19.246Z,72.57
2023-02-25T11:30:19.216Z,74.52
2023-02-25T11:31:20.301Z,74.44
2023-02-25T11:32:19.352Z,73.33
2023-02-25T11:33:19.198Z,74.37
2023-02-25T11:34:19.184Z,73.77
2023-02-25T11:35:19.251Z,73.20
2023-02-25T11:36:19.195Z,73.74
2023-02-25T11:37:19.180Z,72.69
2023-02-25T11:38:19.164Z,71.93
2023-02-25T11:39:19.157Z,71.78
2023-02-25T11:40:19.147Z,72.41
2023-02-25T11:41:19.155Z,72.69
2023-02-25T11:42:19.131Z,73.13
2023-02-25T11:43:19.109Z,73.26
2023-02-25T11:44:19.097Z,71.27
2023-02-25T11:45:19.088Z,71.98
2023-02-25T11:46:19.157Z,74.18
2023-02-25T11:47:19.088Z,73.07
2023-02-25T11:48:19.064Z,73.99
2023-02-25T11:49:19.061Z,73.04
2023-02-25T11:50:19.041Z,74.46
2023-02-25T11:51:19.029Z,73.24
2023-02-25T11:52:19.056Z,74.99
2023-02-25T11:53:19.055Z,72.85
2023-02-25T11:54:19.015Z,72.86
2023-02-25T11:55:18.993Z,73.23
2023-02-25T11:56:18.993Z,73.09
2023-02-25T11:57:19.030Z,71.08
2023-02-25T11:58:18.976Z,71.96
2023-02-25T11:59:18.955Z,71.88
2023-02-25T12:00:18.936Z,71.61
2023-02-25T12:01:18.954Z,72.51
2023-02-25T12:02:18.930Z,72.78
2023-02-25T12:03:19.909Z,74.01
2023-02-25T12:04:18.904Z,73.54
2023-02-25T12:05:18.933Z,73.30
2023-02-25T12:06:18.907Z,71.02
2023-02-25T12:07:18.877Z,72.64
2023-02-25T12:08:18.861Z,72.93
2023-02-25T12:09:18.860Z,72.55
2023-02-25T12:10:18.947Z,73.96
2023-02-25T12:11:18.870Z,72.42
2023-02-25T12:12:18.833Z,73.91
2023-02-25T12:13:18.889Z,72.61
2023-02-25T12:14:18.812Z,72.42
2023-02-25T12:15:18.787Z,73.89
2023-02-25T12:16:18.846Z,72.55
2023-02-25T12:17:18.777Z,70.26
2023-02-25T12:18:18.772Z,72.28
2023-02-25T12:19:18.761Z,71.40
2023-02-25T12:20:18.742Z,73.48
2023-02-25T12:21:18.762Z,72.07
2023-02-25T12:22:18.717Z,72.22
2023-02-25T12:23:18.716Z,72.51
2023-02-25T12:24:18.753Z,73.30
2023-02-25T12:25:18.694Z,73.85
2023-02-25T12:26:18.700Z,72.30
2023-02-25T12:27:18.669Z,73.77
2023-02-25T12:28:18.667Z,73.09
2023-02-25T12:29:18.652Z,73.08
2023-02-25T12:30:18.652Z,73.63
2023-02-25T12:31:18.676Z,70.71
2023-02-25T12:32:18.722Z,73.40
2023-02-25T12:33:18.615Z,74.01
2023-02-25T12:34:19.679Z,72.95
2023-02-25T12:35:18.587Z,73.19
2023-02-25T12:36:18.595Z,73.54
2023-02-25T12:37:18.570Z,72.78
2023-02-25T12:38:18.562Z,72.88
2023-02-25T12:39:18.555Z,73.34
2023-02-25T12:40:18.533Z,73.65
2023-02-25T12:41:18.573Z,72.20
2023-02-25T12:42:18.518Z,74.54
2023-02-25T12:43:18.500Z,70.88
2023-02-25T12:44:18.503Z,72.96
2023-02-25T12:45:18.491Z,74.24
2023-02-25T12:46:18.502Z,72.58
2023-02-25T12:47:18.470Z,72.02
2023-02-25T12:48:18.468Z,71.58
2023-02-25T12:49:18.443Z,76.12
2023-02-25T12:50:18.456Z,72.19
2023-02-25T12:51:18.455Z,73.23
2023-02-25T12:52:18.413Z,72.39